createdAt,value
2022-12-08T00:00:53.653Z,19.63
2022-12-08T00:03:23.966Z,18.17
2022-12-08T00:06:09.201Z,18.17
2022-12-08T00:08:51.629Z,17.50
2022-12-08T00:11:22.251Z,15.68
2022-12-08T00:13:52.328Z,17.83
2022-12-08T00:16:22.474Z,16.77
2022-12-08T00:18:52.697Z,16.67
2022-12-08T00:21:25.399Z,18.13
2022-12-08T00:23:57.940Z,17.45
2022-12-08T00:26:27.943Z,15.63
2022-12-08T00:28:58.075Z,15.80
2022-12-08T00:31:28.189Z,17.00
2022-12-08T00:33:58.395Z,16.52
2022-12-08T00:36:31.580Z,16.95
2022-12-08T00:39:04.310Z,16.08
2022-12-08T00:41:46.808Z,16.17
2022-12-08T00:44:19.179Z,17.42
2022-12-08T00:46:50.144Z,15.93
2022-12-08T00:49:20.739Z,16.10
2022-12-08T00:51:53.493Z,15.07
2022-12-08T00:54:26.305Z,13.48
2022-12-08T00:56:56.453Z,13.13
2022-12-08T00:59:27.008Z,15.07
2022-12-08T01:01:57.081Z,14.75
2022-12-08T01:04:27.301Z,14.35
2022-12-08T01:06:59.971Z,13.75
2022-12-08T01:09:30.005Z,13.20
2022-12-08T01:12:00.088Z,12.70
2022-12-08T01:14:30.212Z,10.65
2022-12-08T01:17:00.444Z,11.00
2022-12-08T01:19:31.107Z,11.45
2022-12-08T01:22:03.830Z,9.98
2022-12-08T01:24:36.000Z,10.13
2022-12-08T01:27:06.055Z,10.45
2022-12-08T01:29:36.275Z,10.77
2022-12-08T01:32:06.447Z,10.90
2022-12-08T01:34:36.458Z,11.20
2022-12-08T01:37:09.076Z,11.57
2022-12-08T01:39:40.983Z,10.07
2022-12-08T01:42:22.237Z,9.10
2022-12-08T01:45:17.031Z,7.03
2022-12-08T01:47:51.269Z,8.10
2022-12-08T01:50:23.292Z,9.32
2022-12-08T01:53:00.309Z,8.73
2022-12-08T01:55:36.440Z,10.55
2022-12-08T01:58:10.065Z,9.18
2022-12-08T02:00:40.080Z,10.68
2022-12-08T02:03:16.267Z,9.48
2022-12-08T02:05:47.595Z,8.52
2022-12-08T02:08:20.975Z,9.10
2022-12-08T02:10:54.889Z,10.05
2022-12-08T02:13:27.399Z,9.50
2022-12-08T02:16:05.720Z,9.85
2022-12-08T02:19:28.548Z,10.05
2022-12-08T02:21:54.259Z,9.73
2022-12-08T02:24:34.344Z,9.18
2022-12-08T02:27:28.975Z,10.98
2022-12-08T02:33:12.561Z,8.73
2022-12-08T02:35:55.299Z,8.10
2022-12-08T02:38:40.547Z,9.02
2022-12-08T02:41:21.866Z,9.77
2022-12-08T02:43:59.614Z,9.82
2022-12-08T02:46:34.290Z,9.60
2022-12-08T02:49:05.387Z,10.10
2022-12-08T02:51:40.156Z,11.40
2022-12-08T02:54:10.367Z,10.45
2022-12-08T02:56:57.969Z,9.43
2022-12-08T02:59:50.874Z,9.93
2022-12-08T03:02:33.240Z,11.80
2022-12-08T03:05:10.392Z,10.05
2022-12-08T03:07:50.665Z,9.30
2022-12-08T03:10:26.046Z,10.27
2022-12-08T03:13:01.921Z,8.23
2022-12-08T03:15:34.813Z,9.73
2022-12-08T03:18:08.441Z,10.65
2022-12-08T03:20:40.049Z,9.98
2022-12-08T03:23:16.156Z,11.05
2022-12-08T03:25:51.640Z,9.98
2022-12-08T03:28:21.847Z,9.85
2022-12-08T03:30:58.445Z,9.73
2022-12-08T03:33:33.490Z,8.93
2022-12-08T03:36:07.612Z,9.38
2022-12-08T03:38:44.763Z,9.75
2022-12-08T03:41:21.324Z,8.68
2022-12-08T03:43:52.786Z,9.90
2022-12-08T03:48:55.334Z,8.13
2022-12-08T03:51:27.395Z,7.80
2022-12-08T03:54:00.994Z,8.10
2022-12-08T03:56:32.338Z,7.47
2022-12-08T03:59:02.786Z,8.88
2022-12-08T04:01:32.973Z,8.60
2022-12-08T04:04:03.143Z,7.88
2022-12-08T04:06:33.440Z,8.52
2022-12-08T04:09:06.130Z,8.23
2022-12-08T04:11:36.297Z,7.75
2022-12-08T04:14:06.523Z,8.85
2022-12-08T04:16:36.660Z,7.50
2022-12-08T04:19:06.935Z,8.25
2022-12-08T04:21:37.447Z,7.32
2022-12-08T04:24:10.728Z,7.18
2022-12-08T04:26:40.781Z,8.27
2022-12-08T04:29:10.878Z,8.73
2022-12-08T04:31:41.090Z,7.90
2022-12-08T04:34:11.931Z,8.27
2022-12-08T04:36:42.099Z,8.00
2022-12-08T04:39:14.764Z,7.97
2022-12-08T04:41:44.861Z,7.85
2022-12-08T04:44:15.035Z,7.70
2022-12-08T04:46:45.070Z,8.27
2022-12-08T04:49:15.173Z,7.68
2022-12-08T04:51:45.234Z,8.85
2022-12-08T04:54:17.853Z,7.00
2022-12-08T04:56:48.032Z,6.70
2022-12-08T04:59:18.116Z,10.25
2022-12-08T05:01:48.266Z,9.25
2022-12-08T05:04:18.454Z,9.15
2022-12-08T05:06:48.474Z,9.23
2022-12-08T05:09:21.167Z,7.75
2022-12-08T05:11:51.332Z,9.15
2022-12-08T05:14:22.309Z,8.80
2022-12-08T05:16:52.446Z,8.65
2022-12-08T05:19:24.820Z,8.48
2022-12-08T05:21:55.002Z,7.82
2022-12-08T05:24:27.964Z,8.02
2022-12-08T05:26:58.053Z,9.02
2022-12-08T05:29:28.613Z,7.85
2022-12-08T05:31:58.853Z,8.20
2022-12-08T05:34:29.227Z,8.85
2022-12-08T05:36:59.264Z,8.05
2022-12-08T05:39:32.108Z,9.38
2022-12-08T05:42:02.501Z,9.20
2022-12-08T05:44:32.720Z,9.50
2022-12-08T05:47:03.046Z,8.93
2022-12-08T05:49:33.220Z,9.55
2022-12-08T05:52:03.342Z,10.18
2022-12-08T05:54:35.977Z,8.50
2022-12-08T05:57:06.287Z,9.85
2022-12-08T05:59:37.203Z,10.27
2022-12-08T06:02:07.377Z,10.18
2022-12-08T06:04:37.479Z,13.82
2022-12-08T06:07:10.672Z,11.88
2022-12-08T06:09:47.496Z,11.88
2022-12-08T06:12:17.638Z,12.32
2022-12-08T06:14:48.811Z,11.98
2022-12-08T06:17:18.964Z,11.30
2022-12-08T06:19:49.040Z,10.50
2022-12-08T06:22:19.039Z,9.95
2022-12-08T06:24:51.801Z,11.10
2022-12-08T06:27:21.896Z,10.05
2022-12-08T06:29:51.992Z,10.40
2022-12-08T06:32:27.294Z,10.63
2022-12-08T06:34:57.724Z,11.38
2022-12-08T06:37:27.960Z,11.50
2022-12-08T06:40:01.259Z,12.10
2022-12-08T06:42:47.255Z,10.85
2022-12-08T06:45:19.424Z,12.20
2022-12-08T06:47:49.461Z,10.75
2022-12-08T06:50:19.524Z,10.23
2022-12-08T06:53:00.801Z,11.10
2022-12-08T06:58:27.575Z,10.80
2022-12-08T07:00:57.773Z,11.85
2022-12-08T07:03:27.876Z,11.50
2022-12-08T07:06:03.780Z,12.82
2022-12-08T07:08:35.159Z,13.25
2022-12-08T07:11:18.027Z,12.50
2022-12-08T07:16:19.567Z,11.02
2022-12-08T07:18:49.785Z,13.20
2022-12-08T07:21:20.764Z,11.88
2022-12-08T07:23:57.330Z,12.60
2022-12-08T07:26:30.503Z,12.60
2022-12-08T07:29:00.713Z,12.95
2022-12-08T07:31:31.408Z,14.25
2022-12-08T07:34:01.931Z,11.93
2022-12-08T07:36:32.708Z,14.18
2022-12-08T07:39:02.884Z,12.95
2022-12-08T07:41:36.322Z,13.63
2022-12-08T07:44:07.148Z,14.00
2022-12-08T07:46:37.228Z,12.57
2022-12-08T07:49:07.452Z,13.85
2022-12-08T07:51:37.562Z,13.13
2022-12-08T07:54:07.825Z,12.77
2022-12-08T07:56:40.459Z,14.32
2022-12-08T07:59:10.585Z,15.05
2022-12-08T08:01:41.381Z,14.82
2022-12-08T08:04:14.515Z,11.25
2022-12-08T08:06:44.651Z,10.35
2022-12-08T08:09:15.389Z,10.57
2022-12-08T08:12:01.279Z,9.27
2022-12-08T08:14:38.583Z,10.13
2022-12-08T08:17:08.808Z,10.52
2022-12-08T08:19:39.193Z,9.80
2022-12-08T08:22:09.343Z,11.63
2022-12-08T08:24:44.638Z,12.30
2022-12-08T08:27:17.865Z,14.52
2022-12-08T08:29:48.207Z,14.98
2022-12-08T08:32:18.291Z,13.27
2022-12-08T08:34:48.397Z,13.05
2022-12-08T08:37:18.564Z,14.05
2022-12-08T08:39:48.858Z,14.38
2022-12-08T08:42:21.520Z,14.05
2022-12-08T08:44:52.927Z,15.13
2022-12-08T08:47:23.080Z,16.50
2022-12-08T08:49:53.224Z,15.40
2022-12-08T08:52:23.290Z,16.55
2022-12-08T08:54:53.433Z,15.75
2022-12-08T08:57:26.384Z,14.38
2022-12-08T08:59:56.787Z,14.45
2022-12-08T09:02:27.025Z,15.07
2022-12-08T09:04:57.214Z,14.40
2022-12-08T09:07:27.443Z,14.00
2022-12-08T09:10:01.849Z,15.07
2022-12-08T09:15:04.928Z,13.30
2022-12-08T09:17:35.067Z,13.52
2022-12-08T09:20:05.595Z,13.32
2022-12-08T09:22:35.927Z,12.85
2022-12-08T09:25:06.452Z,11.32
2022-12-08T09:27:39.097Z,12.98
2022-12-08T09:30:11.022Z,13.38
2022-12-08T09:32:41.138Z,12.18
2022-12-08T09:35:11.755Z,10.80
2022-12-08T09:37:41.768Z,10.68
2022-12-08T09:40:18.414Z,10.48
2022-12-08T09:42:55.740Z,11.18
2022-12-08T09:45:29.543Z,11.23
2022-12-08T09:48:03.794Z,12.23
2022-12-08T09:50:38.060Z,10.93
2022-12-08T09:53:15.327Z,10.73
2022-12-08T09:55:49.720Z,13.80
2022-12-08T09:58:30.804Z,13.18
2022-12-08T10:01:02.157Z,11.85
2022-12-08T10:03:33.565Z,12.30
2022-12-08T10:06:10.722Z,12.05
2022-12-08T10:08:49.225Z,11.18
2022-12-08T10:11:27.244Z,12.27
2022-12-08T10:14:06.651Z,11.13
2022-12-08T10:16:42.189Z,10.63
2022-12-08T10:19:17.623Z,9.77
2022-12-08T10:21:48.406Z,9.82
2022-12-08T10:24:28.976Z,11.25
2022-12-08T10:26:59.662Z,12.38
2022-12-08T10:29:32.572Z,11.18
2022-12-08T10:32:03.318Z,9.73
2022-12-08T10:34:33.406Z,10.25
2022-12-08T10:37:03.492Z,11.55
2022-12-08T10:39:39.276Z,8.70
2022-12-08T10:42:22.199Z,9.43
2022-12-08T10:45:25.089Z,9.35
2022-12-08T10:48:02.789Z,6.80
2022-12-08T10:50:37.936Z,7.78
2022-12-08T10:53:16.229Z,10.20
2022-12-08T10:55:48.619Z,8.13
2022-12-08T10:58:30.438Z,7.90
2022-12-08T11:01:07.796Z,8.20
2022-12-08T11:03:40.494Z,7.68
2022-12-08T11:06:17.799Z,8.13
2022-12-08T11:08:52.085Z,9.60
2022-12-08T11:11:29.224Z,8.25
2022-12-08T11:13:59.659Z,9.40
2022-12-08T11:16:32.491Z,9.88
2022-12-08T11:19:08.362Z,9.45
2022-12-08T11:21:40.213Z,10.13
2022-12-08T11:24:25.368Z,8.50
2022-12-08T11:26:57.977Z,9.23
2022-12-08T11:29:29.112Z,8.25
2022-12-08T11:32:05.787Z,9.38
2022-12-08T11:34:41.771Z,8.52
2022-12-08T11:37:18.993Z,8.73
2022-12-08T11:39:53.263Z,9.77
2022-12-08T11:42:29.154Z,9.90
2022-12-08T11:45:02.211Z,8.35
2022-12-08T11:47:40.013Z,6.20
2022-12-08T11:50:22.989Z,7.53
2022-12-08T11:52:54.384Z,6.82
2022-12-08T11:55:37.460Z,6.43
2022-12-08T11:58:19.667Z,7.50
2022-12-08T12:00:49.904Z,6.10
2022-12-08T12:03:31.191Z,5.03
2022-12-08T12:09:21.289Z,5.68
2022-12-08T12:12:16.929Z,4.85
2022-12-08T12:15:16.020Z,6.38
2022-12-08T12:17:50.842Z,6.15
2022-12-08T12:20:28.910Z,6.10
2022-12-08T12:23:06.159Z,5.72
2022-12-08T12:25:38.649Z,5.45
2022-12-08T12:28:11.779Z,4.82
2022-12-08T12:31:00.794Z,4.65
2022-12-08T12:33:33.370Z,4.93
2022-12-08T12:36:10.404Z,4.82
2022-12-08T12:38:55.812Z,4.40
2022-12-08T12:41:28.882Z,4.85
2022-12-08T12:44:37.843Z,4.82
2022-12-08T12:47:13.149Z,4.90
2022-12-08T12:50:17.772Z,4.95
2022-12-08T12:52:54.593Z,4.68
2022-12-08T12:55:31.196Z,5.43
2022-12-08T12:58:01.896Z,5.22
2022-12-08T13:00:31.988Z,6.68
2022-12-08T13:03:02.380Z,5.25
2022-12-08T13:05:37.183Z,5.70
2022-12-08T13:08:19.576Z,6.72
2022-12-08T13:11:00.130Z,6.95
2022-12-08T13:13:31.288Z,6.18
2022-12-08T13:16:17.104Z,6.57
2022-12-08T13:18:52.406Z,5.28
2022-12-08T13:21:25.327Z,6.05
2022-12-08T13:24:17.886Z,6.70
2022-12-08T13:26:49.500Z,5.47
2022-12-08T13:29:23.139Z,5.78
2022-12-08T13:31:55.723Z,6.43
2022-12-08T13:34:34.219Z,3.88
2022-12-08T13:37:26.767Z,5.53
2022-12-08T13:40:04.038Z,5.25
2022-12-08T13:42:38.831Z,5.82
2022-12-08T13:45:33.455Z,4.70
2022-12-08T13:48:51.193Z,5.35
2022-12-08T13:53:22.519Z,6.45
2022-12-08T13:57:11.979Z,6.93
2022-12-08T13:59:47.500Z,4.78
2022-12-08T14:02:23.459Z,8.05
2022-12-08T14:05:34.567Z,7.28
2022-12-08T14:07:48.690Z,8.82
2022-12-08T14:10:23.419Z,8.32
2022-12-08T14:13:01.097Z,9.63
2022-12-08T14:15:38.239Z,8.20
2022-12-08T14:18:12.417Z,10.07
2022-12-08T14:21:19.047Z,9.30
2022-12-08T14:23:32.640Z,10.05
2022-12-08T14:26:02.727Z,9.82
2022-12-08T14:28:43.044Z,8.70
2022-12-08T14:31:15.061Z,8.55
2022-12-08T14:33:45.417Z,8.88
2022-12-08T14:36:16.880Z,7.10
2022-12-08T14:38:48.374Z,7.78
2022-12-08T14:41:18.476Z,8.75
2022-12-08T14:44:01.305Z,5.18
2022-12-08T14:46:31.966Z,6.82
2022-12-08T14:49:02.070Z,7.28
2022-12-08T14:51:34.754Z,5.70
2022-12-08T14:54:09.517Z,5.55
2022-12-08T14:56:42.175Z,5.82
2022-12-08T14:59:21.562Z,5.05
2022-12-08T15:01:53.939Z,5.35
2022-12-08T15:04:28.757Z,5.80
2022-12-08T15:07:05.546Z,6.07
2022-12-08T15:09:39.901Z,6.28
2022-12-08T15:12:27.110Z,5.50
2022-12-08T15:15:02.462Z,5.28
2022-12-08T15:17:37.227Z,5.32
2022-12-08T15:20:09.741Z,6.35
2022-12-08T15:22:39.870Z,4.32
2022-12-08T15:25:15.556Z,6.45
2022-12-08T15:27:50.711Z,6.30
2022-12-08T15:30:23.985Z,6.95
2022-12-08T15:32:56.086Z,4.47
2022-12-08T15:35:26.327Z,4.95
2022-12-08T15:37:56.732Z,5.28
2022-12-08T15:40:27.337Z,5.80
2022-12-08T15:42:57.441Z,5.53
2022-12-08T15:45:34.695Z,5.68
2022-12-08T15:48:04.987Z,4.60
2022-12-08T15:50:35.045Z,7.03
2022-12-08T15:53:05.285Z,10.80
2022-12-08T15:55:38.755Z,11.73
2022-12-08T16:01:02.768Z,5.60
2022-12-08T16:04:19.803Z,6.93
2022-12-08T16:07:12.938Z,5.53
2022-12-08T16:09:22.289Z,5.18
2022-12-08T16:12:07.303Z,5.32
2022-12-08T16:17:31.694Z,5.40
2022-12-08T16:20:04.101Z,3.85
2022-12-08T16:25:36.417Z,5.20
2022-12-08T16:28:52.241Z,3.65
2022-12-08T16:31:13.069Z,2.72
2022-12-08T16:33:46.522Z,2.97
2022-12-08T16:36:16.712Z,2.85
2022-12-08T16:38:46.774Z,3.08
2022-12-08T16:41:29.834Z,2.95
2022-12-08T16:44:04.138Z,2.80
2022-12-08T16:46:34.955Z,3.63
2022-12-08T16:49:10.710Z,3.35
2022-12-08T16:51:40.805Z,3.38
2022-12-08T16:54:10.823Z,3.38
2022-12-08T16:56:41.026Z,3.55
2022-12-08T16:59:11.113Z,3.05
2022-12-08T17:01:41.745Z,3.22
2022-12-08T17:04:30.989Z,3.22
2022-12-08T17:07:02.339Z,4.10
2022-12-08T17:09:34.404Z,5.28
2022-12-08T17:12:04.573Z,5.53
2022-12-08T17:14:37.388Z,4.72
2022-12-08T17:17:07.474Z,7.00
2022-12-08T17:19:40.599Z,6.90
2022-12-08T17:22:10.638Z,7.97
2022-12-08T17:24:40.864Z,7.07
2022-12-08T17:27:11.495Z,8.07
2022-12-08T17:29:41.652Z,8.35
2022-12-08T17:32:11.942Z,9.23
2022-12-08T17:34:44.884Z,7.65
2022-12-08T17:37:15.403Z,9.18
2022-12-08T17:39:45.904Z,9.90
2022-12-08T17:42:15.988Z,9.07
2022-12-08T17:44:46.808Z,10.93
2022-12-08T17:47:16.835Z,9.60
2022-12-08T17:49:49.561Z,10.65
2022-12-08T17:52:19.754Z,8.77
2022-12-08T17:54:49.849Z,9.35
2022-12-08T17:57:19.928Z,9.32
2022-12-08T17:59:50.085Z,9.73
2022-12-08T18:02:21.218Z,8.75
2022-12-08T18:04:53.966Z,9.10
2022-12-08T18:07:24.020Z,9.30
2022-12-08T18:09:54.588Z,9.43
2022-12-08T18:12:24.863Z,9.10
2022-12-08T18:14:55.154Z,8.90
2022-12-08T18:17:25.280Z,9.57
2022-12-08T18:19:58.266Z,7.82
2022-12-08T18:22:28.367Z,8.50
2022-12-08T18:24:58.399Z,8.60
2022-12-08T18:27:28.453Z,8.65
2022-12-08T18:29:58.524Z,8.27
2022-12-08T18:32:31.762Z,8.77
2022-12-08T18:35:05.068Z,8.95
2022-12-08T18:37:35.185Z,8.80
2022-12-08T18:40:06.822Z,7.53
2022-12-08T18:42:42.616Z,9.02
2022-12-08T18:45:16.782Z,7.78
2022-12-08T18:47:52.034Z,9.57
2022-12-08T18:50:24.734Z,8.75
2022-12-08T18:52:54.822Z,11.38
2022-12-08T18:55:24.917Z,10.73
2022-12-08T18:57:55.027Z,10.07
2022-12-08T19:00:25.194Z,10.85
2022-12-08T19:02:58.014Z,13.32
2022-12-08T19:05:32.837Z,14.43
2022-12-08T19:08:06.301Z,13.80
2022-12-08T19:10:40.830Z,12.37
2022-12-08T19:13:11.077Z,9.20
2022-12-08T19:15:41.180Z,10.75
2022-12-08T19:18:11.437Z,10.60
2022-12-08T19:20:46.555Z,10.35
2022-12-08T19:23:17.061Z,10.70
2022-12-08T19:25:47.254Z,10.68
2022-12-08T19:28:17.393Z,9.75
2022-12-08T19:30:47.606Z,11.75
2022-12-08T19:33:17.753Z,12.20
2022-12-08T19:35:52.769Z,11.55
2022-12-08T19:38:22.994Z,14.40
2022-12-08T19:41:05.550Z,15.00
2022-12-08T19:43:48.188Z,14.13
2022-12-08T19:46:18.430Z,15.18
2022-12-08T19:48:48.763Z,14.82
2022-12-08T19:51:26.767Z,13.82
2022-12-08T19:53:56.765Z,14.50
2022-12-08T19:56:26.868Z,14.70
2022-12-08T19:58:57.178Z,14.88
2022-12-08T20:01:30.558Z,14.35
2022-12-08T20:04:00.714Z,15.27
2022-12-08T20:06:33.754Z,14.63
2022-12-08T20:09:05.393Z,14.48
2022-12-08T20:11:35.555Z,14.10
2022-12-08T20:14:05.590Z,14.43
2022-12-08T20:16:36.430Z,14.60
2022-12-08T20:19:07.216Z,15.55
2022-12-08T20:21:41.679Z,14.40
2022-12-08T20:24:11.956Z,15.60
2022-12-08T20:26:42.104Z,15.55
2022-12-08T20:29:12.557Z,16.38
2022-12-08T20:31:42.666Z,22.60
2022-12-08T20:34:16.914Z,18.90
2022-12-08T20:39:21.476Z,16.63
2022-12-08T20:41:52.261Z,19.02
2022-12-08T20:44:22.376Z,20.00
2022-12-08T20:46:52.544Z,21.80
2022-12-08T20:49:22.679Z,21.15
2022-12-08T20:51:55.401Z,18.58
2022-12-08T20:54:25.760Z,19.75
2022-12-08T20:56:56.108Z,19.95
2022-12-08T20:59:26.532Z,19.92
2022-12-08T21:01:57.209Z,18.08
2022-12-08T21:04:27.578Z,15.15
2022-12-08T21:07:00.703Z,15.18
2022-12-08T21:09:31.046Z,14.45
2022-12-08T21:12:01.350Z,14.40
2022-12-08T21:14:31.538Z,14.98
2022-12-08T21:17:01.895Z,15.32
2022-12-08T21:19:32.188Z,12.13
2022-12-08T21:22:05.045Z,11.13
2022-12-08T21:24:35.429Z,12.63
2022-12-08T21:27:05.837Z,12.07
2022-12-08T21:29:35.934Z,12.60
2022-12-08T21:32:06.597Z,11.45
2022-12-08T21:34:37.355Z,10.75
2022-12-08T21:37:10.044Z,10.82
2022-12-08T21:39:40.376Z,11.48
2022-12-08T21:42:23.035Z,10.80
2022-12-08T21:44:53.981Z,10.82
2022-12-08T21:47:24.273Z,10.35
2022-12-08T21:49:54.490Z,11.43
2022-12-08T21:52:29.793Z,9.90
2022-12-08T21:54:59.989Z,10.27
2022-12-08T21:57:30.113Z,10.77
2022-12-08T22:00:01.677Z,10.05
2022-12-08T22:02:32.406Z,11.75
2022-12-08T22:05:02.572Z,10.05
2022-12-08T22:07:35.675Z,9.93
2022-12-08T22:10:07.751Z,11.32
2022-12-08T22:12:39.586Z,11.65
2022-12-08T22:15:11.948Z,11.65
2022-12-08T22:17:44.524Z,11.40
2022-12-08T22:20:17.315Z,10.93
2022-12-08T22:22:49.974Z,11.63
2022-12-08T22:25:20.681Z,11.32
2022-12-08T22:27:50.881Z,12.55
2022-12-08T22:30:21.537Z,12.18
2022-12-08T22:32:51.637Z,12.43
2022-12-08T22:35:21.875Z,11.43
2022-12-08T22:37:57.945Z,10.82
2022-12-08T22:40:27.952Z,12.20
2022-12-08T22:42:58.001Z,12.18
2022-12-08T22:45:28.205Z,12.43
2022-12-08T22:47:58.334Z,12.70
2022-12-08T22:50:28.364Z,12.77
2022-12-08T22:53:01.044Z,11.02
2022-12-08T22:55:31.281Z,11.73
2022-12-08T22:58:01.359Z,11.68
2022-12-08T23:00:31.995Z,11.50
2022-12-08T23:03:02.374Z,12.10
2022-12-08T23:05:35.346Z,12.57
2022-12-08T23:08:10.011Z,11.70
2022-12-08T23:10:42.516Z,11.23
2022-12-08T23:13:13.341Z,12.38
2022-12-08T23:15:44.386Z,12.05
2022-12-08T23:18:17.088Z,11.73
2022-12-08T23:20:48.245Z,12.50
2022-12-08T23:23:21.200Z,13.18
2022-12-08T23:25:51.473Z,12.85
2022-12-08T23:28:21.501Z,13.07
2022-12-08T23:30:51.970Z,12.00
2022-12-08T23:33:22.556Z,12.77
2022-12-08T23:35:59.575Z,12.02
2022-12-08T23:38:32.179Z,12.13
2022-12-08T23:41:03.801Z,12.23
2022-12-08T23:43:34.105Z,12.88
2022-12-08T23:46:04.796Z,12.38
2022-12-08T23:48:35.315Z,13.05
2022-12-08T23:51:05.501Z,13.43
2022-12-08T23:53:38.716Z,13.70
2022-12-08T23:56:12.310Z,13.75
2022-12-08T23:58:43.177Z,12.57
